sensor_id;sensor_type;location;lat;lon;timestamp;P1;durP1;ratioP1;P2;durP2;ratioP2
12076;SDS011;12420;42.676;23.262;2023-08-06T00:02:10;4.27;;;3.20;;
12076;SDS011;12420;42.676;23.262;2023-08-06T00:04:37;4.20;;;3.37;;
12076;SDS011;12420;42.676;23.262;2023-08-06T00:07:04;4.93;;;3.50;;
12076;SDS011;12420;42.676;23.262;2023-08-06T00:09:31;5.40;;;3.70;;
12076;SDS011;12420;42.676;23.262;2023-08-06T00:11:58;3.57;;;3.27;;
12076;SDS011;12420;42.676;23.262;2023-08-06T00:14:24;3.97;;;3.63;;
12076;SDS011;12420;42.676;23.262;2023-08-06T00:16:53;4.03;;;3.63;;
12076;SDS011;12420;42.676;23.262;2023-08-06T00:19:19;4.17;;;3.43;;
12076;SDS011;12420;42.676;23.262;2023-08-06T00:21:46;4.20;;;3.40;;
12076;SDS011;12420;42.676;23.262;2023-08-06T00:24:13;3.87;;;3.50;;
12076;SDS011;12420;42.676;23.262;2023-08-06T00:26:40;4.03;;;3.50;;
12076;SDS011;12420;42.676;23.262;2023-08-06T00:29:06;3.43;;;3.00;;
12076;SDS011;12420;42.676;23.262;2023-08-06T00:31:33;4.07;;;3.00;;
12076;SDS011;12420;42.676;23.262;2023-08-06T00:34:01;3.10;;;2.90;;
12076;SDS011;12420;42.676;23.262;2023-08-06T00:36:28;3.37;;;3.17;;
12076;SDS011;12420;42.676;23.262;2023-08-06T00:38:55;3.57;;;3.10;;
12076;SDS011;12420;42.676;23.262;2023-08-06T00:41:22;3.57;;;3.20;;
12076;SDS011;12420;42.676;23.262;2023-08-06T00:43:49;3.40;;;3.10;;
12076;SDS011;12420;42.676;23.262;2023-08-06T00:46:16;4.00;;;3.13;;
12076;SDS011;12420;42.676;23.262;2023-08-06T00:48:43;3.40;;;3.20;;
12076;SDS011;12420;42.676;23.262;2023-08-06T00:51:11;4.30;;;3.90;;
12076;SDS011;12420;42.676;23.262;2023-08-06T00:53:39;5.37;;;3.67;;
12076;SDS011;12420;42.676;23.262;2023-08-06T00:56:06;3.27;;;3.07;;
12076;SDS011;12420;42.676;23.262;2023-08-06T00:58:34;3.93;;;3.53;;
12076;SDS011;12420;42.676;23.262;2023-08-06T01:01:01;3.73;;;3.30;;
12076;SDS011;12420;42.676;23.262;2023-08-06T01:03:28;4.27;;;3.77;;
12076;SDS011;12420;42.676;23.262;2023-08-06T01:05:55;4.10;;;3.50;;
12076;SDS011;12420;42.676;23.262;2023-08-06T01:08:28;3.93;;;3.53;;
12076;SDS011;12420;42.676;23.262;2023-08-06T01:11:08;4.33;;;3.93;;
12076;SDS011;12420;42.676;23.262;2023-08-06T01:13:45;4.37;;;3.97;;
12076;SDS011;12420;42.676;23.262;2023-08-06T01:16:16;4.27;;;3.87;;
12076;SDS011;12420;42.676;23.262;2023-08-06T01:18:44;7.53;;;3.60;;
12076;SDS011;12420;42.676;23.262;2023-08-06T01:21:16;4.10;;;3.70;;
12076;SDS011;12420;42.676;23.262;2023-08-06T01:23:43;3.70;;;3.40;;
12076;SDS011;12420;42.676;23.262;2023-08-06T01:26:13;3.50;;;3.30;;
12076;SDS011;12420;42.676;23.262;2023-08-06T01:28:44;3.87;;;3.57;;
12076;SDS011;12420;42.676;23.262;2023-08-06T01:31:18;3.50;;;3.30;;
12076;SDS011;12420;42.676;23.262;2023-08-06T01:33:50;3.87;;;3.43;;
12076;SDS011;12420;42.676;23.262;2023-08-06T01:36:20;3.60;;;3.30;;
12076;SDS011;12420;42.676;23.262;2023-08-06T01:38:48;4.00;;;3.70;;
12076;SDS011;12420;42.676;23.262;2023-08-06T01:41:17;4.00;;;3.70;;
12076;SDS011;12420;42.676;23.262;2023-08-06T01:43:43;3.80;;;3.50;;
12076;SDS011;12420;42.676;23.262;2023-08-06T01:46:10;4.77;;;3.93;;
12076;SDS011;12420;42.676;23.262;2023-08-06T01:48:40;5.27;;;4.10;;
12076;SDS011;12420;42.676;23.262;2023-08-06T01:51:07;3.97;;;3.57;;
12076;SDS011;12420;42.676;23.262;2023-08-06T01:53:35;4.03;;;3.60;;
12076;SDS011;12420;42.676;23.262;2023-08-06T01:56:02;4.90;;;3.70;;
12076;SDS011;12420;42.676;23.262;2023-08-06T01:58:29;4.73;;;3.90;;
12076;SDS011;12420;42.676;23.262;2023-08-06T02:00:56;4.90;;;3.43;;
12076;SDS011;12420;42.676;23.262;2023-08-06T02:03:22;3.67;;;3.33;;
12076;SDS011;12420;42.676;23.262;2023-08-06T02:05:49;4.03;;;3.70;;
12076;SDS011;12420;42.676;23.262;2023-08-06T02:08:16;4.57;;;3.80;;
12076;SDS011;12420;42.676;23.262;2023-08-06T02:10:44;3.83;;;3.53;;
12076;SDS011;12420;42.676;23.262;2023-08-06T02:13:11;3.73;;;3.43;;
12076;SDS011;12420;42.676;23.262;2023-08-06T02:15:41;4.83;;;4.23;;
12076;SDS011;12420;42.676;23.262;2023-08-06T02:18:08;4.00;;;3.70;;
12076;SDS011;12420;42.676;23.262;2023-08-06T02:20:35;3.60;;;3.30;;
12076;SDS011;12420;42.676;23.262;2023-08-06T02:23:02;6.80;;;4.50;;
12076;SDS011;12420;42.676;23.262;2023-08-06T02:25:29;7.37;;;4.50;;
12076;SDS011;12420;42.676;23.262;2023-08-06T02:27:57;8.57;;;4.63;;
12076;SDS011;12420;42.676;23.262;2023-08-06T02:30:30;5.47;;;4.40;;
12076;SDS011;12420;42.676;23.262;2023-08-06T02:33:00;4.60;;;4.20;;
12076;SDS011;12420;42.676;23.262;2023-08-06T02:35:27;6.73;;;4.07;;
12076;SDS011;12420;42.676;23.262;2023-08-06T02:37:54;4.70;;;4.27;;
12076;SDS011;12420;42.676;23.262;2023-08-06T02:40:20;7.30;;;6.70;;
12076;SDS011;12420;42.676;23.262;2023-08-06T02:42:47;7.60;;;6.17;;
12076;SDS011;12420;42.676;23.262;2023-08-06T02:45:16;4.40;;;3.83;;
12076;SDS011;12420;42.676;23.262;2023-08-06T02:47:42;3.97;;;3.57;;
12076;SDS011;12420;42.676;23.262;2023-08-06T02:50:09;3.53;;;3.20;;
12076;SDS011;12420;42.676;23.262;2023-08-06T02:52:36;3.33;;;3.03;;
12076;SDS011;12420;42.676;23.262;2023-08-06T02:55:04;3.23;;;3.03;;
12076;SDS011;12420;42.676;23.262;2023-08-06T02:57:31;3.10;;;2.90;;
12076;SDS011;12420;42.676;23.262;2023-08-06T02:59:58;3.30;;;3.00;;
12076;SDS011;12420;42.676;23.262;2023-08-06T03:02:26;3.22;;;2.80;;
12076;SDS011;12420;42.676;23.262;2023-08-06T03:04:53;3.23;;;2.80;;
12076;SDS011;12420;42.676;23.262;2023-08-06T03:07:20;2.93;;;2.73;;
12076;SDS011;12420;42.676;23.262;2023-08-06T03:09:46;3.63;;;3.20;;
12076;SDS011;12420;42.676;23.262;2023-08-06T03:12:16;3.50;;;3.20;;
12076;SDS011;12420;42.676;23.262;2023-08-06T03:14:42;4.33;;;3.33;;
12076;SDS011;12420;42.676;23.262;2023-08-06T03:17:09;3.80;;;3.10;;
12076;SDS011;12420;42.676;23.262;2023-08-06T03:19:37;3.83;;;3.43;;
12076;SDS011;12420;42.676;23.262;2023-08-06T03:22:04;4.20;;;3.80;;
12076;SDS011;12420;42.676;23.262;2023-08-06T03:24:31;4.83;;;4.00;;
12076;SDS011;12420;42.676;23.262;2023-08-06T03:26:58;6.20;;;4.10;;
12076;SDS011;12420;42.676;23.262;2023-08-06T03:29:25;4.47;;;4.03;;
12076;SDS011;12420;42.676;23.262;2023-08-06T03:31:52;4.97;;;3.57;;
12076;SDS011;12420;42.676;23.262;2023-08-06T03:34:19;3.63;;;3.33;;
12076;SDS011;12420;42.676;23.262;2023-08-06T03:36:48;3.57;;;3.23;;
12076;SDS011;12420;42.676;23.262;2023-08-06T03:39:15;6.87;;;4.00;;
12076;SDS011;12420;42.676;23.262;2023-08-06T03:41:42;4.17;;;3.43;;
12076;SDS011;12420;42.676;23.262;2023-08-06T03:44:08;5.47;;;3.63;;
12076;SDS011;12420;42.676;23.262;2023-08-06T03:46:35;3.83;;;3.40;;
12076;SDS011;12420;42.676;23.262;2023-08-06T03:49:02;3.37;;;3.07;;
12076;SDS011;12420;42.676;23.262;2023-08-06T03:51:29;3.87;;;3.40;;
12076;SDS011;12420;42.676;23.262;2023-08-06T03:53:58;4.17;;;3.50;;
12076;SDS011;12420;42.676;23.262;2023-08-06T03:56:26;4.30;;;3.73;;
12076;SDS011;12420;42.676;23.262;2023-08-06T03:58:52;4.30;;;3.50;;
12076;SDS011;12420;42.676;23.262;2023-08-06T04:01:19;5.17;;;3.57;;
12076;SDS011;12420;42.676;23.262;2023-08-06T04:03:46;3.80;;;3.50;;
12076;SDS011;12420;42.676;23.262;2023-08-06T04:06:13;3.47;;;3.17;;
12076;SDS011;12420;42.676;23.262;2023-08-06T04:08:40;5.07;;;3.20;;
12076;SDS011;12420;42.676;23.262;2023-08-06T04:11:08;4.03;;;3.10;;
12076;SDS011;12420;42.676;23.262;2023-08-06T04:13:34;3.17;;;2.97;;
12076;SDS011;12420;42.676;23.262;2023-08-06T04:16:01;3.37;;;2.80;;
12076;SDS011;12420;42.676;23.262;2023-08-06T04:18:28;4.13;;;3.60;;
12076;SDS011;12420;42.676;23.262;2023-08-06T04:20:55;3.60;;;3.40;;
12076;SDS011;12420;42.676;23.262;2023-08-06T04:23:22;3.77;;;3.47;;
12076;SDS011;12420;42.676;23.262;2023-08-06T04:25:49;3.77;;;3.37;;
12076;SDS011;12420;42.676;23.262;2023-08-06T04:28:23;7.07;;;6.37;;
12076;SDS011;12420;42.676;23.262;2023-08-06T04:30:50;6.87;;;6.33;;
12076;SDS011;12420;42.676;23.262;2023-08-06T04:33:18;6.57;;;6.13;;
12076;SDS011;12420;42.676;23.262;2023-08-06T04:35:45;6.93;;;6.23;;
12076;SDS011;12420;42.676;23.262;2023-08-06T04:38:12;7.93;;;7.23;;
12076;SDS011;12420;42.676;23.262;2023-08-06T04:40:39;8.20;;;7.40;;
12076;SDS011;12420;42.676;23.262;2023-08-06T04:43:05;6.23;;;5.10;;
12076;SDS011;12420;42.676;23.262;2023-08-06T04:45:34;5.33;;;4.30;;
12076;SDS011;12420;42.676;23.262;2023-08-06T04:48:01;4.07;;;3.77;;
12076;SDS011;12420;42.676;23.262;2023-08-06T04:50:27;3.70;;;3.40;;
12076;SDS011;12420;42.676;23.262;2023-08-06T04:52:54;3.73;;;3.50;;
12076;SDS011;12420;42.676;23.262;2023-08-06T04:55:21;3.87;;;3.63;;
12076;SDS011;12420;42.676;23.262;2023-08-06T04:57:49;3.27;;;3.07;;
12076;SDS011;12420;42.676;23.262;2023-08-06T05:00:16;3.50;;;3.30;;
12076;SDS011;12420;42.676;23.262;2023-08-06T05:02:44;3.83;;;3.47;;
12076;SDS011;12420;42.676;23.262;2023-08-06T05:05:11;4.47;;;3.40;;
12076;SDS011;12420;42.676;23.262;2023-08-06T05:07:38;4.70;;;4.33;;
12076;SDS011;12420;42.676;23.262;2023-08-06T05:10:05;7.93;;;5.30;;
12076;SDS011;12420;42.676;23.262;2023-08-06T05:12:33;8.07;;;6.70;;
12076;SDS011;12420;42.676;23.262;2023-08-06T05:15:01;9.37;;;8.37;;
12076;SDS011;12420;42.676;23.262;2023-08-06T05:17:28;9.60;;;8.60;;
12076;SDS011;12420;42.676;23.262;2023-08-06T05:19:56;10.63;;;9.37;;
12076;SDS011;12420;42.676;23.262;2023-08-06T05:22:23;10.47;;;9.33;;
12076;SDS011;12420;42.676;23.262;2023-08-06T05:24:50;10.43;;;9.37;;
12076;SDS011;12420;42.676;23.262;2023-08-06T05:27:17;10.50;;;9.50;;
12076;SDS011;12420;42.676;23.262;2023-08-06T05:29:44;10.97;;;9.97;;
12076;SDS011;12420;42.676;23.262;2023-08-06T05:32:11;9.90;;;9.00;;
12076;SDS011;12420;42.676;23.262;2023-08-06T05:34:37;9.87;;;9.00;;
12076;SDS011;12420;42.676;23.262;2023-08-06T05:37:08;9.20;;;8.40;;
12076;SDS011;12420;42.676;23.262;2023-08-06T05:39:35;9.73;;;8.43;;
12076;SDS011;12420;42.676;23.262;2023-08-06T05:42:02;10.30;;;9.30;;
12076;SDS011;12420;42.676;23.262;2023-08-06T05:44:30;9.03;;;8.23;;
12076;SDS011;12420;42.676;23.262;2023-08-06T05:46:57;6.63;;;6.13;;
12076;SDS011;12420;42.676;23.262;2023-08-06T05:49:24;6.83;;;6.23;;
12076;SDS011;12420;42.676;23.262;2023-08-06T05:51:51;5.63;;;5.23;;
12076;SDS011;12420;42.676;23.262;2023-08-06T05:54:20;4.63;;;4.30;;
12076;SDS011;12420;42.676;23.262;2023-08-06T05:56:46;3.90;;;3.70;;
12076;SDS011;12420;42.676;23.262;2023-08-06T05:59:13;3.90;;;3.60;;
12076;SDS011;12420;42.676;23.262;2023-08-06T06:01:40;3.90;;;3.60;;
12076;SDS011;12420;42.676;23.262;2023-08-06T06:04:07;3.33;;;3.17;;
12076;SDS011;12420;42.676;23.262;2023-08-06T06:06:34;3.60;;;3.30;;
12076;SDS011;12420;42.676;23.262;2023-08-06T06:09:01;3.60;;;3.40;;
12076;SDS011;12420;42.676;23.262;2023-08-06T06:11:29;3.40;;;3.13;;
12076;SDS011;12420;42.676;23.262;2023-08-06T06:13:56;3.83;;;2.90;;
12076;SDS011;12420;42.676;23.262;2023-08-06T06:16:23;3.87;;;3.57;;
12076;SDS011;12420;42.676;23.262;2023-08-06T06:18:50;3.20;;;3.00;;
12076;SDS011;12420;42.676;23.262;2023-08-06T06:21:17;3.60;;;3.10;;
12076;SDS011;12420;42.676;23.262;2023-08-06T06:23:44;3.03;;;2.87;;
12076;SDS011;12420;42.676;23.262;2023-08-06T06:26:11;3.83;;;3.43;;
12076;SDS011;12420;42.676;23.262;2023-08-06T06:28:39;3.67;;;3.37;;
12076;SDS011;12420;42.676;23.262;2023-08-06T06:31:06;3.40;;;3.20;;
12076;SDS011;12420;42.676;23.262;2023-08-06T06:33:34;3.37;;;3.10;;
12076;SDS011;12420;42.676;23.262;2023-08-06T06:36:01;3.30;;;3.00;;
12076;SDS011;12420;42.676;23.262;2023-08-06T06:38:28;3.40;;;3.20;;
12076;SDS011;12420;42.676;23.262;2023-08-06T06:40:55;3.53;;;3.33;;
12076;SDS011;12420;42.676;23.262;2023-08-06T06:43:23;3.40;;;3.20;;
12076;SDS011;12420;42.676;23.262;2023-08-06T06:45:55;3.50;;;3.30;;
12076;SDS011;12420;42.676;23.262;2023-08-06T06:48:23;4.27;;;3.87;;
12076;SDS011;12420;42.676;23.262;2023-08-06T06:50:49;3.97;;;3.67;;
12076;SDS011;12420;42.676;23.262;2023-08-06T06:53:17;4.03;;;3.43;;
12076;SDS011;12420;42.676;23.262;2023-08-06T06:55:43;3.97;;;3.57;;
12076;SDS011;12420;42.676;23.262;2023-08-06T06:58:10;3.70;;;3.50;;
12076;SDS011;12420;42.676;23.262;2023-08-06T07:00:37;3.70;;;3.40;;
12076;SDS011;12420;42.676;23.262;2023-08-06T07:03:06;3.97;;;3.70;;
12076;SDS011;12420;42.676;23.262;2023-08-06T07:05:33;3.00;;;2.70;;
12076;SDS011;12420;42.676;23.262;2023-08-06T07:08:00;3.33;;;3.03;;
12076;SDS011;12420;42.676;23.262;2023-08-06T07:10:27;3.20;;;2.90;;
12076;SDS011;12420;42.676;23.262;2023-08-06T07:12:54;2.80;;;2.60;;
12076;SDS011;12420;42.676;23.262;2023-08-06T07:15:20;3.33;;;3.07;;
12076;SDS011;12420;42.676;23.262;2023-08-06T07:17:47;3.10;;;2.80;;
12076;SDS011;12420;42.676;23.262;2023-08-06T07:20:16;3.20;;;3.00;;
12076;SDS011;12420;42.676;23.262;2023-08-06T07:22:43;2.63;;;2.50;;
12076;SDS011;12420;42.676;23.262;2023-08-06T07:25:10;3.00;;;2.80;;
12076;SDS011;12420;42.676;23.262;2023-08-06T07:27:37;5.10;;;2.90;;
12076;SDS011;12420;42.676;23.262;2023-08-06T07:30:05;3.33;;;2.73;;
12076;SDS011;12420;42.676;23.262;2023-08-06T07:32:32;2.70;;;2.50;;
12076;SDS011;12420;42.676;23.262;2023-08-06T07:35:00;3.00;;;2.70;;
12076;SDS011;12420;42.676;23.262;2023-08-06T07:37:29;2.77;;;2.57;;
12076;SDS011;12420;42.676;23.262;2023-08-06T07:39:56;2.60;;;2.50;;
12076;SDS011;12420;42.676;23.262;2023-08-06T07:42:23;2.97;;;2.83;;
12076;SDS011;12420;42.676;23.262;2023-08-06T07:44:51;3.87;;;2.77;;
12076;SDS011;12420;42.676;23.262;2023-08-06T07:47:19;3.00;;;2.80;;
12076;SDS011;12420;42.676;23.262;2023-08-06T07:49:46;3.43;;;2.87;;
12076;SDS011;12420;42.676;23.262;2023-08-06T07:52:13;2.67;;;2.57;;
12076;SDS011;12420;42.676;23.262;2023-08-06T07:54:41;2.90;;;2.70;;
12076;SDS011;12420;42.676;23.262;2023-08-06T07:57:08;2.77;;;2.57;;
12076;SDS011;12420;42.676;23.262;2023-08-06T07:59:35;4.53;;;2.70;;
12076;SDS011;12420;42.676;23.262;2023-08-06T08:02:02;3.60;;;2.90;;
12076;SDS011;12420;42.676;23.262;2023-08-06T08:04:29;3.13;;;2.77;;
12076;SDS011;12420;42.676;23.262;2023-08-06T08:06:56;2.90;;;2.70;;
12076;SDS011;12420;42.676;23.262;2023-08-06T08:09:23;3.43;;;2.80;;
12076;SDS011;12420;42.676;23.262;2023-08-06T08:11:51;3.40;;;2.50;;
12076;SDS011;12420;42.676;23.262;2023-08-06T08:14:18;2.50;;;2.40;;
12076;SDS011;12420;42.676;23.262;2023-08-06T08:16:45;3.17;;;2.87;;
12076;SDS011;12420;42.676;23.262;2023-08-06T08:19:12;2.80;;;2.70;;
12076;SDS011;12420;42.676;23.262;2023-08-06T08:21:39;4.83;;;2.80;;
12076;SDS011;12420;42.676;23.262;2023-08-06T08:24:05;3.07;;;2.77;;
12076;SDS011;12420;42.676;23.262;2023-08-06T08:26:32;2.83;;;2.63;;
12076;SDS011;12420;42.676;23.262;2023-08-06T08:29:01;2.70;;;2.60;;
12076;SDS011;12420;42.676;23.262;2023-08-06T08:31:27;2.92;;;2.80;;
12076;SDS011;12420;42.676;23.262;2023-08-06T08:33:54;2.92;;;2.72;;
12076;SDS011;12420;42.676;23.262;2023-08-06T08:36:21;3.20;;;2.90;;
12076;SDS011;12420;42.676;23.262;2023-08-06T08:38:48;3.10;;;2.83;;
12076;SDS011;12420;42.676;23.262;2023-08-06T08:41:18;2.88;;;2.75;;
12076;SDS011;12420;42.676;23.262;2023-08-06T08:43:46;2.90;;;2.70;;
12076;SDS011;12420;42.676;23.262;2023-08-06T08:46:17;2.97;;;2.78;;
12076;SDS011;12420;42.676;23.262;2023-08-06T08:48:45;2.80;;;2.60;;
12076;SDS011;12420;42.676;23.262;2023-08-06T08:51:12;2.70;;;2.60;;
12076;SDS011;12420;42.676;23.262;2023-08-06T08:53:40;2.97;;;2.80;;
12076;SDS011;12420;42.676;23.262;2023-08-06T08:56:10;4.40;;;3.07;;
12076;SDS011;12420;42.676;23.262;2023-08-06T08:58:38;3.28;;;2.97;;
12076;SDS011;12420;42.676;23.262;2023-08-06T09:01:05;3.20;;;3.00;;
12076;SDS011;12420;42.676;23.262;2023-08-06T09:03:35;3.00;;;2.90;;
12076;SDS011;12420;42.676;23.262;2023-08-06T09:06:03;3.13;;;2.70;;
12076;SDS011;12420;42.676;23.262;2023-08-06T09:08:31;3.08;;;2.85;;
12076;SDS011;12420;42.676;23.262;2023-08-06T09:11:03;3.08;;;2.88;;
12076;SDS011;12420;42.676;23.262;2023-08-06T09:13:31;2.50;;;2.40;;
12076;SDS011;12420;42.676;23.262;2023-08-06T09:15:57;2.83;;;2.63;;
12076;SDS011;12420;42.676;23.262;2023-08-06T09:18:25;3.00;;;2.78;;
12076;SDS011;12420;42.676;23.262;2023-08-06T09:20:54;2.80;;;2.60;;
12076;SDS011;12420;42.676;23.262;2023-08-06T09:23:25;5.53;;;2.95;;
12076;SDS011;12420;42.676;23.262;2023-08-06T09:25:54;2.30;;;2.20;;
12076;SDS011;12420;42.676;23.262;2023-08-06T09:28:21;2.75;;;2.50;;
12076;SDS011;12420;42.676;23.262;2023-08-06T09:30:49;2.30;;;2.08;;
12076;SDS011;12420;42.676;23.262;2023-08-06T09:33:17;2.30;;;2.20;;
12076;SDS011;12420;42.676;23.262;2023-08-06T09:35:45;2.33;;;2.13;;
12076;SDS011;12420;42.676;23.262;2023-08-06T09:38:14;2.90;;;2.30;;
12076;SDS011;12420;42.676;23.262;2023-08-06T09:40:41;2.20;;;2.10;;
12076;SDS011;12420;42.676;23.262;2023-08-06T09:43:08;2.85;;;2.38;;
12076;SDS011;12420;42.676;23.262;2023-08-06T09:45:35;2.88;;;2.20;;
12076;SDS011;12420;42.676;23.262;2023-08-06T09:48:02;2.80;;;2.60;;
12076;SDS011;12420;42.676;23.262;2023-08-06T09:50:30;2.70;;;2.50;;
12076;SDS011;12420;42.676;23.262;2023-08-06T09:52:58;2.53;;;2.40;;
12076;SDS011;12420;42.676;23.262;2023-08-06T09:55:27;2.50;;;2.40;;
12076;SDS011;12420;42.676;23.262;2023-08-06T09:57:54;2.10;;;2.00;;
12076;SDS011;12420;42.676;23.262;2023-08-06T10:00:21;1.88;;;1.77;;
12076;SDS011;12420;42.676;23.262;2023-08-06T10:02:52;2.33;;;2.10;;
12076;SDS011;12420;42.676;23.262;2023-08-06T10:05:21;2.30;;;2.20;;
12076;SDS011;12420;42.676;23.262;2023-08-06T10:07:49;2.10;;;2.00;;
12076;SDS011;12420;42.676;23.262;2023-08-06T10:10:17;2.05;;;1.95;;
12076;SDS011;12420;42.676;23.262;2023-08-06T10:12:46;4.22;;;2.30;;
12076;SDS011;12420;42.676;23.262;2023-08-06T10:15:17;3.58;;;1.80;;
12076;SDS011;12420;42.676;23.262;2023-08-06T10:17:49;2.08;;;2.00;;
12076;SDS011;12420;42.676;23.262;2023-08-06T10:20:20;2.15;;;2.05;;
12076;SDS011;12420;42.676;23.262;2023-08-06T10:22:55;2.20;;;2.10;;
12076;SDS011;12420;42.676;23.262;2023-08-06T10:25:26;2.30;;;2.20;;
12076;SDS011;12420;42.676;23.262;2023-08-06T10:27:58;2.15;;;1.98;;
12076;SDS011;12420;42.676;23.262;2023-08-06T10:30:25;2.08;;;1.98;;
12076;SDS011;12420;42.676;23.262;2023-08-06T10:32:54;2.28;;;2.10;;
12076;SDS011;12420;42.676;23.262;2023-08-06T10:35:33;2.20;;;2.10;;
12076;SDS011;12420;42.676;23.262;2023-08-06T10:38:05;2.50;;;2.30;;
12076;SDS011;12420;42.676;23.262;2023-08-06T10:40:34;2.55;;;2.30;;
12076;SDS011;12420;42.676;23.262;2023-08-06T10:43:04;2.58;;;2.30;;
12076;SDS011;12420;42.676;23.262;2023-08-06T10:45:34;2.60;;;2.40;;
12076;SDS011;12420;42.676;23.262;2023-08-06T10:48:01;2.65;;;2.42;;
12076;SDS011;12420;42.676;23.262;2023-08-06T10:50:28;4.53;;;2.35;;
12076;SDS011;12420;42.676;23.262;2023-08-06T10:52:56;2.80;;;2.22;;
12076;SDS011;12420;42.676;23.262;2023-08-06T10:55:24;2.90;;;2.70;;
12076;SDS011;12420;42.676;23.262;2023-08-06T10:57:52;2.55;;;2.40;;
12076;SDS011;12420;42.676;23.262;2023-08-06T11:00:24;2.55;;;2.35;;
12076;SDS011;12420;42.676;23.262;2023-08-06T11:02:53;2.63;;;2.35;;
12076;SDS011;12420;42.676;23.262;2023-08-06T11:05:20;3.38;;;2.40;;
12076;SDS011;12420;42.676;23.262;2023-08-06T11:07:47;2.35;;;2.25;;
12076;SDS011;12420;42.676;23.262;2023-08-06T11:10:16;2.53;;;2.42;;
12076;SDS011;12420;42.676;23.262;2023-08-06T11:12:43;2.80;;;2.60;;
12076;SDS011;12420;42.676;23.262;2023-08-06T11:15:10;3.00;;;2.80;;
12076;SDS011;12420;42.676;23.262;2023-08-06T11:17:40;3.23;;;3.03;;
12076;SDS011;12420;42.676;23.262;2023-08-06T11:20:08;7.57;;;3.00;;
12076;SDS011;12420;42.676;23.262;2023-08-06T11:22:36;4.40;;;3.43;;
12076;SDS011;12420;42.676;23.262;2023-08-06T11:25:04;10.23;;;4.57;;
12076;SDS011;12420;42.676;23.262;2023-08-06T11:27:32;6.93;;;3.28;;
12076;SDS011;12420;42.676;23.262;2023-08-06T11:29:59;3.92;;;3.55;;
12076;SDS011;12420;42.676;23.262;2023-08-06T11:32:26;4.10;;;3.70;;
12076;SDS011;12420;42.676;23.262;2023-08-06T11:34:55;3.50;;;3.20;;
12076;SDS011;12420;42.676;23.262;2023-08-06T11:37:22;3.60;;;3.40;;
12076;SDS011;12420;42.676;23.262;2023-08-06T11:39:50;4.25;;;3.95;;
12076;SDS011;12420;42.676;23.262;2023-08-06T11:42:18;4.78;;;3.85;;
12076;SDS011;12420;42.676;23.262;2023-08-06T11:44:44;3.63;;;3.33;;
12076;SDS011;12420;42.676;23.262;2023-08-06T11:47:12;4.22;;;3.60;;
12076;SDS011;12420;42.676;23.262;2023-08-06T11:49:41;3.55;;;3.30;;
12076;SDS011;12420;42.676;23.262;2023-08-06T11:52:12;4.03;;;3.60;;
12076;SDS011;12420;42.676;23.262;2023-08-06T11:54:42;3.47;;;3.17;;
12076;SDS011;12420;42.676;23.262;2023-08-06T11:57:10;4.15;;;3.78;;
12076;SDS011;12420;42.676;23.262;2023-08-06T11:59:37;4.95;;;2.90;;
12076;SDS011;12420;42.676;23.262;2023-08-06T12:02:05;3.90;;;3.60;;
12076;SDS011;12420;42.676;23.262;2023-08-06T12:07:29;3.78;;;3.58;;
12076;SDS011;12420;42.676;23.262;2023-08-06T12:09:56;3.75;;;3.55;;
12076;SDS011;12420;42.676;23.262;2023-08-06T12:12:23;4.45;;;4.05;;
12076;SDS011;12420;42.676;23.262;2023-08-06T12:14:50;3.70;;;3.50;;
12076;SDS011;12420;42.676;23.262;2023-08-06T12:17:17;4.35;;;4.05;;
12076;SDS011;12420;42.676;23.262;2023-08-06T12:19:44;4.80;;;4.25;;
12076;SDS011;12420;42.676;23.262;2023-08-06T12:22:11;4.47;;;4.00;;
12076;SDS011;12420;42.676;23.262;2023-08-06T12:24:40;6.88;;;3.90;;
12076;SDS011;12420;42.676;23.262;2023-08-06T12:27:07;4.68;;;4.28;;
12076;SDS011;12420;42.676;23.262;2023-08-06T12:29:34;4.88;;;4.32;;
12076;SDS011;12420;42.676;23.262;2023-08-06T12:32:00;4.63;;;4.15;;
12076;SDS011;12420;42.676;23.262;2023-08-06T12:34:27;4.65;;;4.13;;
12076;SDS011;12420;42.676;23.262;2023-08-06T12:36:54;5.13;;;4.82;;
12076;SDS011;12420;42.676;23.262;2023-08-06T12:39:21;4.60;;;4.30;;
12076;SDS011;12420;42.676;23.262;2023-08-06T12:41:49;4.78;;;4.47;;
12076;SDS011;12420;42.676;23.262;2023-08-06T12:44:16;4.72;;;4.32;;
12076;SDS011;12420;42.676;23.262;2023-08-06T12:46:42;4.28;;;3.97;;
12076;SDS011;12420;42.676;23.262;2023-08-06T12:49:09;6.53;;;3.85;;
12076;SDS011;12420;42.676;23.262;2023-08-06T12:51:36;6.13;;;4.80;;
12076;SDS011;12420;42.676;23.262;2023-08-06T12:54:03;6.97;;;4.47;;
12076;SDS011;12420;42.676;23.262;2023-08-06T12:56:30;8.18;;;4.72;;
12076;SDS011;12420;42.676;23.262;2023-08-06T12:59:00;4.93;;;4.53;;
12076;SDS011;12420;42.676;23.262;2023-08-06T13:01:27;5.43;;;5.03;;
12076;SDS011;12420;42.676;23.262;2023-08-06T13:03:53;4.97;;;4.55;;
12076;SDS011;12420;42.676;23.262;2023-08-06T13:06:20;5.97;;;4.72;;
12076;SDS011;12420;42.676;23.262;2023-08-06T13:08:47;5.00;;;4.60;;
12076;SDS011;12420;42.676;23.262;2023-08-06T13:11:14;4.70;;;4.30;;
12076;SDS011;12420;42.676;23.262;2023-08-06T13:13:41;4.72;;;4.32;;
12076;SDS011;12420;42.676;23.262;2023-08-06T13:16:09;4.45;;;4.15;;
12076;SDS011;12420;42.676;23.262;2023-08-06T13:18:35;4.82;;;4.32;;
12076;SDS011;12420;42.676;23.262;2023-08-06T13:21:02;5.05;;;4.55;;
12076;SDS011;12420;42.676;23.262;2023-08-06T13:23:29;5.25;;;4.80;;
12076;SDS011;12420;42.676;23.262;2023-08-06T13:25:56;4.70;;;4.30;;
12076;SDS011;12420;42.676;23.262;2023-08-06T13:28:23;5.22;;;4.07;;
12076;SDS011;12420;42.676;23.262;2023-08-06T13:30:50;4.10;;;3.85;;
12076;SDS011;12420;42.676;23.262;2023-08-06T13:33:18;4.68;;;4.38;;
12076;SDS011;12420;42.676;23.262;2023-08-06T13:35:45;4.15;;;3.90;;
12076;SDS011;12420;42.676;23.262;2023-08-06T13:38:12;5.43;;;4.20;;
12076;SDS011;12420;42.676;23.262;2023-08-06T13:40:38;4.57;;;3.97;;
12076;SDS011;12420;42.676;23.262;2023-08-06T13:43:05;4.15;;;3.88;;
12076;SDS011;12420;42.676;23.262;2023-08-06T13:45:32;4.15;;;3.95;;
12076;SDS011;12420;42.676;23.262;2023-08-06T13:48:00;4.35;;;4.00;;
12076;SDS011;12420;42.676;23.262;2023-08-06T13:50:28;4.57;;;4.20;;
12076;SDS011;12420;42.676;23.262;2023-08-06T13:52:54;4.88;;;4.45;;
12076;SDS011;12420;42.676;23.262;2023-08-06T13:55:21;4.90;;;4.40;;
12076;SDS011;12420;42.676;23.262;2023-08-06T13:57:48;5.18;;;4.78;;
12076;SDS011;12420;42.676;23.262;2023-08-06T14:00:16;4.68;;;4.28;;
12076;SDS011;12420;42.676;23.262;2023-08-06T14:02:42;4.57;;;3.88;;
12076;SDS011;12420;42.676;23.262;2023-08-06T14:05:10;3.85;;;3.65;;
12076;SDS011;12420;42.676;23.262;2023-08-06T14:07:38;4.25;;;3.85;;
12076;SDS011;12420;42.676;23.262;2023-08-06T14:10:05;5.07;;;4.38;;
12076;SDS011;12420;42.676;23.262;2023-08-06T14:12:34;3.75;;;3.53;;
12076;SDS011;12420;42.676;23.262;2023-08-06T14:15:01;6.40;;;5.88;;
12076;SDS011;12420;42.676;23.262;2023-08-06T14:17:28;5.15;;;4.03;;
12076;SDS011;12420;42.676;23.262;2023-08-06T14:19:55;5.18;;;3.70;;
12076;SDS011;12420;42.676;23.262;2023-08-06T14:22:22;3.83;;;3.20;;
12076;SDS011;12420;42.676;23.262;2023-08-06T14:24:50;3.63;;;3.33;;
12076;SDS011;12420;42.676;23.262;2023-08-06T14:27:20;3.40;;;3.13;;
12076;SDS011;12420;42.676;23.262;2023-08-06T14:29:46;3.20;;;3.00;;
12076;SDS011;12420;42.676;23.262;2023-08-06T14:32:13;3.50;;;3.20;;
12076;SDS011;12420;42.676;23.262;2023-08-06T14:34:43;3.80;;;2.90;;
12076;SDS011;12420;42.676;23.262;2023-08-06T14:37:09;2.80;;;2.60;;
12076;SDS011;12420;42.676;23.262;2023-08-06T14:39:36;2.53;;;2.30;;